sensor_id;sensor_type;location;lat;lon;timestamp;P1;durP1;ratioP1;P2;durP2;ratioP2
21507;SDS011;10915;54.352;9.074;2023-05-07T00:00:40;29.50;;;22.23;;
21507;SDS011;10915;54.352;9.074;2023-05-07T00:03:07;33.17;;;22.80;;
21507;SDS011;10915;54.352;9.074;2023-05-07T00:05:33;30.60;;;21.83;;
21507;SDS011;10915;54.352;9.074;2023-05-07T00:07:58;33.97;;;23.27;;
21507;SDS011;10915;54.352;9.074;2023-05-07T00:10:24;37.23;;;22.00;;
21507;SDS011;10915;54.352;9.074;2023-05-07T00:12:50;36.37;;;22.07;;
21507;SDS011;10915;54.352;9.074;2023-05-07T00:15:16;34.53;;;23.27;;
21507;SDS011;10915;54.352;9.074;2023-05-07T00:17:41;32.50;;;23.33;;
21507;SDS011;10915;54.352;9.074;2023-05-07T00:20:07;37.63;;;23.97;;
21507;SDS011;10915;54.352;9.074;2023-05-07T00:22:33;35.93;;;23.13;;
21507;SDS011;10915;54.352;9.074;2023-05-07T00:24:59;35.67;;;23.93;;
21507;SDS011;10915;54.352;9.074;2023-05-07T00:27:25;36.33;;;23.17;;
21507;SDS011;10915;54.352;9.074;2023-05-07T00:29:50;37.67;;;23.43;;
21507;SDS011;10915;54.352;9.074;2023-05-07T00:32:16;37.47;;;24.90;;
21507;SDS011;10915;54.352;9.074;2023-05-07T00:34:42;34.77;;;22.90;;
21507;SDS011;10915;54.352;9.074;2023-05-07T00:37:08;36.23;;;23.00;;
21507;SDS011;10915;54.352;9.074;2023-05-07T00:39:34;33.23;;;21.90;;
21507;SDS011;10915;54.352;9.074;2023-05-07T00:42:00;29.07;;;22.07;;
21507;SDS011;10915;54.352;9.074;2023-05-07T00:44:26;35.60;;;22.60;;
21507;SDS011;10915;54.352;9.074;2023-05-07T00:46:52;30.67;;;21.30;;
21507;SDS011;10915;54.352;9.074;2023-05-07T00:49:18;29.17;;;20.57;;
21507;SDS011;10915;54.352;9.074;2023-05-07T00:51:45;31.63;;;21.93;;
21507;SDS011;10915;54.352;9.074;2023-05-07T00:54:11;33.03;;;21.60;;
21507;SDS011;10915;54.352;9.074;2023-05-07T00:56:38;33.23;;;20.73;;
21507;SDS011;10915;54.352;9.074;2023-05-07T00:59:05;27.77;;;19.30;;
21507;SDS011;10915;54.352;9.074;2023-05-07T01:01:31;31.67;;;21.00;;
21507;SDS011;10915;54.352;9.074;2023-05-07T01:03:57;31.17;;;22.03;;
21507;SDS011;10915;54.352;9.074;2023-05-07T01:06:23;30.00;;;20.50;;
21507;SDS011;10915;54.352;9.074;2023-05-07T01:08:51;31.40;;;20.97;;
21507;SDS011;10915;54.352;9.074;2023-05-07T01:11:18;31.80;;;21.27;;
21507;SDS011;10915;54.352;9.074;2023-05-07T01:13:45;29.13;;;20.83;;
21507;SDS011;10915;54.352;9.074;2023-05-07T01:16:12;29.80;;;19.83;;
21507;SDS011;10915;54.352;9.074;2023-05-07T01:18:38;29.93;;;20.30;;
21507;SDS011;10915;54.352;9.074;2023-05-07T01:21:04;30.03;;;20.53;;
21507;SDS011;10915;54.352;9.074;2023-05-07T01:23:30;29.97;;;20.50;;
21507;SDS011;10915;54.352;9.074;2023-05-07T01:25:55;29.70;;;21.07;;
21507;SDS011;10915;54.352;9.074;2023-05-07T01:28:21;30.90;;;21.83;;
21507;SDS011;10915;54.352;9.074;2023-05-07T01:30:48;26.37;;;19.83;;
21507;SDS011;10915;54.352;9.074;2023-05-07T01:33:18;31.67;;;20.43;;
21507;SDS011;10915;54.352;9.074;2023-05-07T01:35:50;30.37;;;20.87;;
21507;SDS011;10915;54.352;9.074;2023-05-07T01:38:18;25.87;;;18.90;;
21507;SDS011;10915;54.352;9.074;2023-05-07T01:40:46;30.40;;;19.37;;
21507;SDS011;10915;54.352;9.074;2023-05-07T01:43:12;29.07;;;19.30;;
21507;SDS011;10915;54.352;9.074;2023-05-07T01:45:37;29.53;;;20.00;;
21507;SDS011;10915;54.352;9.074;2023-05-07T01:48:05;29.10;;;20.13;;
21507;SDS011;10915;54.352;9.074;2023-05-07T01:50:32;26.23;;;19.93;;
21507;SDS011;10915;54.352;9.074;2023-05-07T01:52:58;22.33;;;18.67;;
21507;SDS011;10915;54.352;9.074;2023-05-07T01:55:24;23.70;;;18.60;;
21507;SDS011;10915;54.352;9.074;2023-05-07T01:57:50;24.97;;;17.93;;
21507;SDS011;10915;54.352;9.074;2023-05-07T02:00:15;21.17;;;16.77;;
21507;SDS011;10915;54.352;9.074;2023-05-07T02:02:42;19.10;;;16.03;;
21507;SDS011;10915;54.352;9.074;2023-05-07T02:05:08;19.03;;;15.40;;
21507;SDS011;10915;54.352;9.074;2023-05-07T02:07:34;21.23;;;16.80;;
21507;SDS011;10915;54.352;9.074;2023-05-07T02:09:59;18.40;;;15.57;;
21507;SDS011;10915;54.352;9.074;2023-05-07T02:12:25;17.03;;;14.50;;
21507;SDS011;10915;54.352;9.074;2023-05-07T02:14:50;18.20;;;15.57;;
21507;SDS011;10915;54.352;9.074;2023-05-07T02:17:16;18.23;;;15.03;;
21507;SDS011;10915;54.352;9.074;2023-05-07T02:19:42;19.50;;;15.60;;
21507;SDS011;10915;54.352;9.074;2023-05-07T02:22:07;19.00;;;15.17;;
21507;SDS011;10915;54.352;9.074;2023-05-07T02:24:34;19.30;;;14.77;;
21507;SDS011;10915;54.352;9.074;2023-05-07T02:27:00;22.40;;;15.73;;
21507;SDS011;10915;54.352;9.074;2023-05-07T02:29:26;18.90;;;15.70;;
21507;SDS011;10915;54.352;9.074;2023-05-07T02:31:52;19.60;;;15.50;;
21507;SDS011;10915;54.352;9.074;2023-05-07T02:34:18;18.97;;;14.70;;
21507;SDS011;10915;54.352;9.074;2023-05-07T02:36:44;17.13;;;13.40;;
21507;SDS011;10915;54.352;9.074;2023-05-07T02:39:10;15.03;;;13.43;;
21507;SDS011;10915;54.352;9.074;2023-05-07T02:41:37;13.43;;;11.90;;
21507;SDS011;10915;54.352;9.074;2023-05-07T02:44:02;16.73;;;13.30;;
21507;SDS011;10915;54.352;9.074;2023-05-07T02:46:28;17.53;;;12.60;;
21507;SDS011;10915;54.352;9.074;2023-05-07T02:48:53;14.70;;;12.53;;
21507;SDS011;10915;54.352;9.074;2023-05-07T02:51:20;14.33;;;12.20;;
21507;SDS011;10915;54.352;9.074;2023-05-07T02:53:46;14.13;;;12.63;;
21507;SDS011;10915;54.352;9.074;2023-05-07T02:56:12;14.83;;;13.23;;
21507;SDS011;10915;54.352;9.074;2023-05-07T02:58:38;15.90;;;12.43;;
21507;SDS011;10915;54.352;9.074;2023-05-07T03:01:09;15.37;;;12.93;;
21507;SDS011;10915;54.352;9.074;2023-05-07T03:03:35;15.20;;;13.63;;
21507;SDS011;10915;54.352;9.074;2023-05-07T03:06:01;15.83;;;12.93;;
21507;SDS011;10915;54.352;9.074;2023-05-07T03:08:26;16.53;;;13.03;;
21507;SDS011;10915;54.352;9.074;2023-05-07T03:10:52;14.03;;;12.37;;
21507;SDS011;10915;54.352;9.074;2023-05-07T03:13:18;16.77;;;13.47;;
21507;SDS011;10915;54.352;9.074;2023-05-07T03:15:43;15.23;;;13.27;;
21507;SDS011;10915;54.352;9.074;2023-05-07T03:18:09;14.70;;;12.67;;
21507;SDS011;10915;54.352;9.074;2023-05-07T03:20:35;15.73;;;12.63;;
21507;SDS011;10915;54.352;9.074;2023-05-07T03:23:01;14.73;;;13.17;;
21507;SDS011;10915;54.352;9.074;2023-05-07T03:25:27;15.37;;;13.73;;
21507;SDS011;10915;54.352;9.074;2023-05-07T03:27:55;16.80;;;13.20;;
21507;SDS011;10915;54.352;9.074;2023-05-07T03:30:21;14.77;;;12.70;;
21507;SDS011;10915;54.352;9.074;2023-05-07T03:32:46;16.73;;;13.97;;
21507;SDS011;10915;54.352;9.074;2023-05-07T03:35:12;16.37;;;13.73;;
21507;SDS011;10915;54.352;9.074;2023-05-07T03:37:38;14.80;;;13.07;;
21507;SDS011;10915;54.352;9.074;2023-05-07T03:40:04;15.10;;;13.50;;
21507;SDS011;10915;54.352;9.074;2023-05-07T03:42:31;16.53;;;14.03;;
21507;SDS011;10915;54.352;9.074;2023-05-07T03:44:56;16.73;;;14.27;;
21507;SDS011;10915;54.352;9.074;2023-05-07T03:47:23;15.30;;;13.13;;
21507;SDS011;10915;54.352;9.074;2023-05-07T03:49:48;17.77;;;14.60;;
21507;SDS011;10915;54.352;9.074;2023-05-07T03:52:15;15.60;;;14.00;;
21507;SDS011;10915;54.352;9.074;2023-05-07T03:54:41;19.50;;;15.07;;
21507;SDS011;10915;54.352;9.074;2023-05-07T03:57:07;16.33;;;13.57;;
21507;SDS011;10915;54.352;9.074;2023-05-07T03:59:32;17.13;;;14.03;;
21507;SDS011;10915;54.352;9.074;2023-05-07T04:01:58;16.07;;;13.90;;
21507;SDS011;10915;54.352;9.074;2023-05-07T04:04:24;17.40;;;14.87;;
21507;SDS011;10915;54.352;9.074;2023-05-07T04:06:49;17.40;;;14.53;;
21507;SDS011;10915;54.352;9.074;2023-05-07T04:09:15;18.80;;;15.17;;
21507;SDS011;10915;54.352;9.074;2023-05-07T04:11:40;17.30;;;14.50;;
21507;SDS011;10915;54.352;9.074;2023-05-07T04:14:06;20.20;;;15.60;;
21507;SDS011;10915;54.352;9.074;2023-05-07T04:16:32;18.17;;;15.73;;
21507;SDS011;10915;54.352;9.074;2023-05-07T04:18:57;17.63;;;15.80;;
21507;SDS011;10915;54.352;9.074;2023-05-07T04:21:23;18.67;;;16.40;;
21507;SDS011;10915;54.352;9.074;2023-05-07T04:23:49;19.20;;;16.00;;
21507;SDS011;10915;54.352;9.074;2023-05-07T04:26:14;18.07;;;16.17;;
21507;SDS011;10915;54.352;9.074;2023-05-07T04:28:41;18.63;;;16.70;;
21507;SDS011;10915;54.352;9.074;2023-05-07T04:31:07;20.17;;;16.83;;
21507;SDS011;10915;54.352;9.074;2023-05-07T04:33:33;18.47;;;16.57;;
21507;SDS011;10915;54.352;9.074;2023-05-07T04:36:02;19.73;;;17.27;;
21507;SDS011;10915;54.352;9.074;2023-05-07T04:38:31;19.63;;;16.63;;
21507;SDS011;10915;54.352;9.074;2023-05-07T04:41:02;19.10;;;17.10;;
21507;SDS011;10915;54.352;9.074;2023-05-07T04:43:28;19.27;;;17.27;;
21507;SDS011;10915;54.352;9.074;2023-05-07T04:45:54;18.27;;;16.43;;
21507;SDS011;10915;54.352;9.074;2023-05-07T04:48:20;18.87;;;16.87;;
21507;SDS011;10915;54.352;9.074;2023-05-07T04:50:49;19.60;;;16.47;;
21507;SDS011;10915;54.352;9.074;2023-05-07T04:53:15;17.23;;;14.90;;
21507;SDS011;10915;54.352;9.074;2023-05-07T04:55:41;18.00;;;15.30;;
21507;SDS011;10915;54.352;9.074;2023-05-07T04:58:07;18.17;;;16.10;;
21507;SDS011;10915;54.352;9.074;2023-05-07T05:00:33;19.20;;;17.20;;
21507;SDS011;10915;54.352;9.074;2023-05-07T05:02:58;18.57;;;16.07;;
21507;SDS011;10915;54.352;9.074;2023-05-07T05:05:24;18.03;;;16.13;;
21507;SDS011;10915;54.352;9.074;2023-05-07T05:07:50;17.60;;;15.73;;
21507;SDS011;10915;54.352;9.074;2023-05-07T05:10:16;17.60;;;15.67;;
21507;SDS011;10915;54.352;9.074;2023-05-07T05:12:42;20.30;;;15.60;;
21507;SDS011;10915;54.352;9.074;2023-05-07T05:15:09;17.20;;;15.07;;
21507;SDS011;10915;54.352;9.074;2023-05-07T05:17:36;17.47;;;15.47;;
21507;SDS011;10915;54.352;9.074;2023-05-07T05:20:01;16.93;;;15.13;;
21507;SDS011;10915;54.352;9.074;2023-05-07T05:22:27;17.00;;;15.20;;
21507;SDS011;10915;54.352;9.074;2023-05-07T05:24:56;16.93;;;14.97;;
21507;SDS011;10915;54.352;9.074;2023-05-07T05:27:21;16.83;;;14.40;;
21507;SDS011;10915;54.352;9.074;2023-05-07T05:29:47;17.37;;;14.20;;
21507;SDS011;10915;54.352;9.074;2023-05-07T05:32:12;15.33;;;13.53;;
21507;SDS011;10915;54.352;9.074;2023-05-07T05:34:38;15.33;;;13.73;;
21507;SDS011;10915;54.352;9.074;2023-05-07T05:37:04;13.30;;;11.90;;
21507;SDS011;10915;54.352;9.074;2023-05-07T05:39:29;13.43;;;11.87;;
21507;SDS011;10915;54.352;9.074;2023-05-07T05:41:55;12.40;;;10.83;;
21507;SDS011;10915;54.352;9.074;2023-05-07T05:44:21;11.17;;;9.83;;
21507;SDS011;10915;54.352;9.074;2023-05-07T05:46:46;11.93;;;10.13;;
21507;SDS011;10915;54.352;9.074;2023-05-07T05:49:14;11.47;;;10.20;;
21507;SDS011;10915;54.352;9.074;2023-05-07T05:51:40;13.43;;;10.60;;
21507;SDS011;10915;54.352;9.074;2023-05-07T05:54:05;12.33;;;10.83;;
21507;SDS011;10915;54.352;9.074;2023-05-07T05:56:31;12.07;;;10.77;;
21507;SDS011;10915;54.352;9.074;2023-05-07T05:58:57;12.20;;;10.47;;
21507;SDS011;10915;54.352;9.074;2023-05-07T06:01:22;12.90;;;9.90;;
21507;SDS011;10915;54.352;9.074;2023-05-07T06:03:48;11.07;;;9.87;;
21507;SDS011;10915;54.352;9.074;2023-05-07T06:06:14;11.80;;;10.23;;
21507;SDS011;10915;54.352;9.074;2023-05-07T06:08:39;11.60;;;9.80;;
21507;SDS011;10915;54.352;9.074;2023-05-07T06:11:05;10.60;;;9.47;;
21507;SDS011;10915;54.352;9.074;2023-05-07T06:13:31;11.50;;;9.50;;
21507;SDS011;10915;54.352;9.074;2023-05-07T06:15:56;10.43;;;9.33;;
21507;SDS011;10915;54.352;9.074;2023-05-07T06:18:22;10.33;;;8.97;;
21507;SDS011;10915;54.352;9.074;2023-05-07T06:20:47;10.67;;;8.80;;
21507;SDS011;10915;54.352;9.074;2023-05-07T06:23:13;10.30;;;8.60;;
21507;SDS011;10915;54.352;9.074;2023-05-07T06:25:39;11.20;;;8.87;;
21507;SDS011;10915;54.352;9.074;2023-05-07T06:28:05;9.80;;;8.37;;
21507;SDS011;10915;54.352;9.074;2023-05-07T06:30:31;10.87;;;8.73;;
21507;SDS011;10915;54.352;9.074;2023-05-07T06:32:56;10.27;;;7.70;;
21507;SDS011;10915;54.352;9.074;2023-05-07T06:35:22;9.43;;;8.20;;
21507;SDS011;10915;54.352;9.074;2023-05-07T06:37:47;10.83;;;9.17;;
21507;SDS011;10915;54.352;9.074;2023-05-07T06:40:13;11.60;;;9.17;;
21507;SDS011;10915;54.352;9.074;2023-05-07T06:42:39;10.63;;;8.47;;
21507;SDS011;10915;54.352;9.074;2023-05-07T06:45:05;10.67;;;8.70;;
21507;SDS011;10915;54.352;9.074;2023-05-07T06:47:31;10.17;;;8.40;;
21507;SDS011;10915;54.352;9.074;2023-05-07T06:49:57;9.87;;;7.87;;
21507;SDS011;10915;54.352;9.074;2023-05-07T06:52:22;9.93;;;8.50;;
21507;SDS011;10915;54.352;9.074;2023-05-07T06:54:48;9.73;;;7.80;;
21507;SDS011;10915;54.352;9.074;2023-05-07T06:57:13;9.30;;;7.90;;
21507;SDS011;10915;54.352;9.074;2023-05-07T06:59:39;10.67;;;8.57;;
21507;SDS011;10915;54.352;9.074;2023-05-07T07:02:05;10.07;;;7.83;;
21507;SDS011;10915;54.352;9.074;2023-05-07T07:04:31;11.73;;;8.90;;
21507;SDS011;10915;54.352;9.074;2023-05-07T07:06:56;10.87;;;8.33;;
21507;SDS011;10915;54.352;9.074;2023-05-07T07:09:22;9.30;;;7.73;;
21507;SDS011;10915;54.352;9.074;2023-05-07T07:11:47;8.97;;;7.90;;
21507;SDS011;10915;54.352;9.074;2023-05-07T07:14:13;10.77;;;8.10;;
21507;SDS011;10915;54.352;9.074;2023-05-07T07:16:39;9.87;;;8.30;;
21507;SDS011;10915;54.352;9.074;2023-05-07T07:21:41;9.60;;;8.27;;
21507;SDS011;10915;54.352;9.074;2023-05-07T07:24:07;9.57;;;8.57;;
21507;SDS011;10915;54.352;9.074;2023-05-07T07:26:33;10.23;;;8.03;;
21507;SDS011;10915;54.352;9.074;2023-05-07T07:28:58;9.10;;;7.37;;
21507;SDS011;10915;54.352;9.074;2023-05-07T07:31:24;9.00;;;7.63;;
21507;SDS011;10915;54.352;9.074;2023-05-07T07:33:50;10.63;;;7.73;;
21507;SDS011;10915;54.352;9.074;2023-05-07T07:36:15;9.67;;;7.00;;
21507;SDS011;10915;54.352;9.074;2023-05-07T07:38:41;9.10;;;7.37;;
21507;SDS011;10915;54.352;9.074;2023-05-07T07:41:09;10.10;;;6.50;;
21507;SDS011;10915;54.352;9.074;2023-05-07T07:43:35;8.73;;;7.13;;
21507;SDS011;10915;54.352;9.074;2023-05-07T07:46:01;9.50;;;7.00;;
21507;SDS011;10915;54.352;9.074;2023-05-07T07:48:26;9.77;;;7.30;;
21507;SDS011;10915;54.352;9.074;2023-05-07T07:50:52;8.73;;;6.80;;
21507;SDS011;10915;54.352;9.074;2023-05-07T07:53:18;9.60;;;7.20;;
21507;SDS011;10915;54.352;9.074;2023-05-07T07:55:43;10.27;;;7.10;;
21507;SDS011;10915;54.352;9.074;2023-05-07T07:58:09;9.77;;;7.10;;
21507;SDS011;10915;54.352;9.074;2023-05-07T08:00:35;9.63;;;6.97;;
21507;SDS011;10915;54.352;9.074;2023-05-07T08:03:01;9.73;;;6.47;;
21507;SDS011;10915;54.352;9.074;2023-05-07T08:05:28;8.97;;;6.73;;
21507;SDS011;10915;54.352;9.074;2023-05-07T08:07:54;10.57;;;6.80;;
21507;SDS011;10915;54.352;9.074;2023-05-07T08:10:20;8.33;;;6.27;;
21507;SDS011;10915;54.352;9.074;2023-05-07T08:12:49;8.87;;;6.47;;
21507;SDS011;10915;54.352;9.074;2023-05-07T08:15:15;9.23;;;6.77;;
21507;SDS011;10915;54.352;9.074;2023-05-07T08:17:41;9.47;;;6.47;;
21507;SDS011;10915;54.352;9.074;2023-05-07T08:20:07;8.93;;;6.47;;
21507;SDS011;10915;54.352;9.074;2023-05-07T08:22:34;10.67;;;7.17;;
21507;SDS011;10915;54.352;9.074;2023-05-07T08:25:00;8.20;;;6.40;;
21507;SDS011;10915;54.352;9.074;2023-05-07T08:27:26;9.17;;;6.47;;
21507;SDS011;10915;54.352;9.074;2023-05-07T08:29:52;9.00;;;6.40;;
21507;SDS011;10915;54.352;9.074;2023-05-07T08:32:17;7.80;;;6.07;;
21507;SDS011;10915;54.352;9.074;2023-05-07T08:34:43;8.13;;;6.23;;
21507;SDS011;10915;54.352;9.074;2023-05-07T08:37:08;8.07;;;6.03;;
21507;SDS011;10915;54.352;9.074;2023-05-07T08:39:34;9.27;;;5.53;;
21507;SDS011;10915;54.352;9.074;2023-05-07T08:42:00;8.37;;;5.83;;
21507;SDS011;10915;54.352;9.074;2023-05-07T08:44:29;7.40;;;5.57;;
21507;SDS011;10915;54.352;9.074;2023-05-07T08:47:00;7.63;;;5.50;;
21507;SDS011;10915;54.352;9.074;2023-05-07T08:49:27;7.10;;;5.50;;
21507;SDS011;10915;54.352;9.074;2023-05-07T08:51:53;7.43;;;5.33;;
21507;SDS011;10915;54.352;9.074;2023-05-07T08:54:20;8.40;;;5.77;;
21507;SDS011;10915;54.352;9.074;2023-05-07T08:56:46;9.80;;;5.80;;
21507;SDS011;10915;54.352;9.074;2023-05-07T08:59:12;6.90;;;5.70;;
21507;SDS011;10915;54.352;9.074;2023-05-07T09:01:38;7.80;;;6.10;;
21507;SDS011;10915;54.352;9.074;2023-05-07T09:04:04;8.83;;;5.93;;
21507;SDS011;10915;54.352;9.074;2023-05-07T09:06:30;7.40;;;5.57;;
21507;SDS011;10915;54.352;9.074;2023-05-07T09:08:56;8.67;;;5.60;;
21507;SDS011;10915;54.352;9.074;2023-05-07T09:11:23;7.70;;;5.90;;
21507;SDS011;10915;54.352;9.074;2023-05-07T09:13:55;7.27;;;5.07;;
21507;SDS011;10915;54.352;9.074;2023-05-07T09:16:23;8.70;;;6.13;;
21507;SDS011;10915;54.352;9.074;2023-05-07T09:18:52;9.73;;;5.83;;
21507;SDS011;10915;54.352;9.074;2023-05-07T09:21:20;9.43;;;5.20;;
21507;SDS011;10915;54.352;9.074;2023-05-07T09:23:47;6.50;;;5.10;;
21507;SDS011;10915;54.352;9.074;2023-05-07T09:26:17;8.03;;;5.07;;
21507;SDS011;10915;54.352;9.074;2023-05-07T09:28:43;7.70;;;5.13;;
21507;SDS011;10915;54.352;9.074;2023-05-07T09:31:09;6.73;;;5.00;;
21507;SDS011;10915;54.352;9.074;2023-05-07T09:33:36;8.77;;;5.13;;
21507;SDS011;10915;54.352;9.074;2023-05-07T09:36:03;8.00;;;5.03;;
21507;SDS011;10915;54.352;9.074;2023-05-07T09:38:33;5.50;;;4.53;;
21507;SDS011;10915;54.352;9.074;2023-05-07T09:43:31;7.77;;;4.80;;
21507;SDS011;10915;54.352;9.074;2023-05-07T09:45:58;6.07;;;4.20;;
21507;SDS011;10915;54.352;9.074;2023-05-07T09:48:27;8.47;;;4.80;;
21507;SDS011;10915;54.352;9.074;2023-05-07T09:50:55;6.70;;;4.80;;
21507;SDS011;10915;54.352;9.074;2023-05-07T09:53:24;6.27;;;4.13;;
21507;SDS011;10915;54.352;9.074;2023-05-07T09:55:51;7.80;;;4.50;;
21507;SDS011;10915;54.352;9.074;2023-05-07T09:58:18;8.57;;;4.73;;
21507;SDS011;10915;54.352;9.074;2023-05-07T10:00:44;5.97;;;4.20;;
21507;SDS011;10915;54.352;9.074;2023-05-07T10:03:10;5.57;;;4.37;;
21507;SDS011;10915;54.352;9.074;2023-05-07T10:05:37;6.83;;;4.37;;
21507;SDS011;10915;54.352;9.074;2023-05-07T10:08:04;6.07;;;4.47;;
21507;SDS011;10915;54.352;9.074;2023-05-07T10:10:30;6.50;;;4.40;;
21507;SDS011;10915;54.352;9.074;2023-05-07T10:12:58;6.33;;;4.40;;
21507;SDS011;10915;54.352;9.074;2023-05-07T10:15:25;6.33;;;4.37;;
21507;SDS011;10915;54.352;9.074;2023-05-07T10:17:51;5.47;;;4.30;;
21507;SDS011;10915;54.352;9.074;2023-05-07T10:20:18;6.70;;;4.20;;
21507;SDS011;10915;54.352;9.074;2023-05-07T10:22:45;5.57;;;4.30;;
21507;SDS011;10915;54.352;9.074;2023-05-07T10:25:20;5.87;;;4.20;;
21507;SDS011;10915;54.352;9.074;2023-05-07T10:27:48;6.60;;;4.10;;
21507;SDS011;10915;54.352;9.074;2023-05-07T10:32:56;5.07;;;3.73;;
21507;SDS011;10915;54.352;9.074;2023-05-07T10:35:31;4.57;;;3.43;;
21507;SDS011;10915;54.352;9.074;2023-05-07T10:38:00;5.53;;;4.10;;
21507;SDS011;10915;54.352;9.074;2023-05-07T10:40:27;5.80;;;4.20;;
21507;SDS011;10915;54.352;9.074;2023-05-07T10:42:59;5.73;;;4.13;;
21507;SDS011;10915;54.352;9.074;2023-05-07T10:45:26;6.27;;;4.30;;
21507;SDS011;10915;54.352;9.074;2023-05-07T10:50:37;4.97;;;4.07;;
21507;SDS011;10915;54.352;9.074;2023-05-07T10:55:45;5.97;;;4.03;;
21507;SDS011;10915;54.352;9.074;2023-05-07T11:00:55;4.93;;;3.87;;
21507;SDS011;10915;54.352;9.074;2023-05-07T11:03:21;6.83;;;4.40;;
21507;SDS011;10915;54.352;9.074;2023-05-07T11:05:47;6.47;;;4.20;;
21507;SDS011;10915;54.352;9.074;2023-05-07T11:08:52;5.17;;;4.00;;
21507;SDS011;10915;54.352;9.074;2023-05-07T11:11:17;6.30;;;4.17;;
21507;SDS011;10915;54.352;9.074;2023-05-07T11:13:45;5.70;;;4.07;;
21507;SDS011;10915;54.352;9.074;2023-05-07T11:16:18;6.03;;;4.00;;
21507;SDS011;10915;54.352;9.074;2023-05-07T11:18:58;6.07;;;4.10;;
21507;SDS011;10915;54.352;9.074;2023-05-07T11:21:39;5.67;;;4.20;;
21507;SDS011;10915;54.352;9.074;2023-05-07T11:24:07;7.60;;;4.60;;
21507;SDS011;10915;54.352;9.074;2023-05-07T11:26:43;6.57;;;4.07;;
21507;SDS011;10915;54.352;9.074;2023-05-07T11:29:17;6.20;;;4.37;;
21507;SDS011;10915;54.352;9.074;2023-05-07T11:31:50;6.17;;;4.33;;
21507;SDS011;10915;54.352;9.074;2023-05-07T11:34:24;4.83;;;3.80;;
21507;SDS011;10915;54.352;9.074;2023-05-07T11:36:51;5.70;;;4.10;;
21507;SDS011;10915;54.352;9.074;2023-05-07T11:42:25;5.30;;;4.40;;
21507;SDS011;10915;54.352;9.074;2023-05-07T11:44:55;6.40;;;4.30;;
21507;SDS011;10915;54.352;9.074;2023-05-07T11:47:21;7.30;;;4.37;;
21507;SDS011;10915;54.352;9.074;2023-05-07T11:49:51;6.27;;;4.40;;
21507;SDS011;10915;54.352;9.074;2023-05-07T11:52:18;6.13;;;4.43;;
21507;SDS011;10915;54.352;9.074;2023-05-07T11:54:51;6.03;;;4.10;;
21507;SDS011;10915;54.352;9.074;2023-05-07T11:57:22;4.67;;;4.00;;
21507;SDS011;10915;54.352;9.074;2023-05-07T11:59:54;7.70;;;3.93;;
21507;SDS011;10915;54.352;9.074;2023-05-07T12:02:20;4.37;;;3.40;;
21507;SDS011;10915;54.352;9.074;2023-05-07T12:04:46;4.27;;;3.30;;
21507;SDS011;10915;54.352;9.074;2023-05-07T12:07:12;5.17;;;3.70;;
21507;SDS011;10915;54.352;9.074;2023-05-07T12:09:41;4.83;;;3.63;;
21507;SDS011;10915;54.352;9.074;2023-05-07T12:12:07;5.60;;;3.93;;
21507;SDS011;10915;54.352;9.074;2023-05-07T12:14:37;5.47;;;3.63;;
21507;SDS011;10915;54.352;9.074;2023-05-07T12:17:05;4.97;;;3.67;;
21507;SDS011;10915;54.352;9.074;2023-05-07T12:19:35;5.00;;;3.30;;
21507;SDS011;10915;54.352;9.074;2023-05-07T12:22:02;5.00;;;3.60;;
21507;SDS011;10915;54.352;9.074;2023-05-07T12:24:28;4.30;;;3.07;;
21507;SDS011;10915;54.352;9.074;2023-05-07T12:27:06;4.90;;;3.10;;
21507;SDS011;10915;54.352;9.074;2023-05-07T12:29:31;4.23;;;3.27;;
21507;SDS011;10915;54.352;9.074;2023-05-07T12:31:57;4.37;;;3.10;;
21507;SDS011;10915;54.352;9.074;2023-05-07T12:34:23;3.37;;;2.90;;
21507;SDS011;10915;54.352;9.074;2023-05-07T12:36:49;5.37;;;3.20;;
21507;SDS011;10915;54.352;9.074;2023-05-07T12:39:14;3.70;;;2.73;;
21507;SDS011;10915;54.352;9.074;2023-05-07T12:41:53;3.73;;;3.00;;
21507;SDS011;10915;54.352;9.074;2023-05-07T12:44:29;4.10;;;2.73;;
21507;SDS011;10915;54.352;9.074;2023-05-07T12:47:02;6.30;;;3.20;;
21507;SDS011;10915;54.352;9.074;2023-05-07T12:49:28;5.97;;;3.00;;
21507;SDS011;10915;54.352;9.074;2023-05-07T12:51:53;4.13;;;2.77;;
21507;SDS011;10915;54.352;9.074;2023-05-07T12:54:32;4.57;;;2.60;;
21507;SDS011;10915;54.352;9.074;2023-05-07T12:57:03;3.33;;;2.77;;
21507;SDS011;10915;54.352;9.074;2023-05-07T12:59:37;3.53;;;2.70;;
21507;SDS011;10915;54.352;9.074;2023-05-07T13:02:04;4.63;;;3.23;;
21507;SDS011;10915;54.352;9.074;2023-05-07T13:04:30;3.00;;;2.67;;
21507;SDS011;10915;54.352;9.074;2023-05-07T13:06:57;5.63;;;2.97;;
21507;SDS011;10915;54.352;9.074;2023-05-07T13:09:24;4.27;;;2.87;;
21507;SDS011;10915;54.352;9.074;2023-05-07T13:11:49;3.60;;;2.90;;
21507;SDS011;10915;54.352;9.074;2023-05-07T13:14:15;5.07;;;2.90;;
21507;SDS011;10915;54.352;9.074;2023-05-07T13:16:41;3.87;;;2.80;;
21507;SDS011;10915;54.352;9.074;2023-05-07T13:19:06;4.17;;;2.73;;
21507;SDS011;10915;54.352;9.074;2023-05-07T13:21:32;4.17;;;2.90;;
21507;SDS011;10915;54.352;9.074;2023-05-07T13:23:58;3.47;;;2.47;;
21507;SDS011;10915;54.352;9.074;2023-05-07T13:26:24;5.07;;;2.93;;
21507;SDS011;10915;54.352;9.074;2023-05-07T13:28:50;4.60;;;2.90;;
21507;SDS011;10915;54.352;9.074;2023-05-07T13:31:16;3.50;;;2.30;;
21507;SDS011;10915;54.352;9.074;2023-05-07T13:33:42;3.50;;;2.53;;
21507;SDS011;10915;54.352;9.074;2023-05-07T13:36:08;4.47;;;2.63;;
21507;SDS011;10915;54.352;9.074;2023-05-07T13:38:34;3.40;;;2.60;;
21507;SDS011;10915;54.352;9.074;2023-05-07T13:41:00;2.50;;;2.20;;
21507;SDS011;10915;54.352;9.074;2023-05-07T13:43:25;3.10;;;2.20;;
21507;SDS011;10915;54.352;9.074;2023-05-07T13:45:51;2.83;;;2.20;;
21507;SDS011;10915;54.352;9.074;2023-05-07T13:48:17;6.90;;;2.50;;
21507;SDS011;10915;54.352;9.074;2023-05-07T13:50:42;4.30;;;2.33;;
21507;SDS011;10915;54.352;9.074;2023-05-07T13:53:08;4.63;;;2.17;;
21507;SDS011;10915;54.352;9.074;2023-05-07T13:55:33;3.10;;;2.40;;
21507;SDS011;10915;54.352;9.074;2023-05-07T13:58:00;4.90;;;2.47;;
21507;SDS011;10915;54.352;9.074;2023-05-07T14:00:27;3.23;;;1.90;;
21507;SDS011;10915;54.352;9.074;2023-05-07T14:02:54;2.70;;;2.17;;
21507;SDS011;10915;54.352;9.074;2023-05-07T14:05:20;3.57;;;2.13;;
21507;SDS011;10915;54.352;9.074;2023-05-07T14:07:48;5.30;;;2.53;;
21507;SDS011;10915;54.352;9.074;2023-05-07T14:10:16;3.03;;;2.00;;
21507;SDS011;10915;54.352;9.074;2023-05-07T14:12:43;2.37;;;1.70;;
21507;SDS011;10915;54.352;9.074;2023-05-07T14:15:09;4.70;;;2.17;;
21507;SDS011;10915;54.352;9.074;2023-05-07T14:17:36;3.57;;;2.00;;
21507;SDS011;10915;54.352;9.074;2023-05-07T14:20:02;3.03;;;2.23;;
21507;SDS011;10915;54.352;9.074;2023-05-07T14:22:27;2.43;;;1.83;;
21507;SDS011;10915;54.352;9.074;2023-05-07T14:24:53;2.13;;;1.93;;
21507;SDS011;10915;54.352;9.074;2023-05-07T14:27:19;2.40;;;2.03;;
21507;SDS011;10915;54.352;9.074;2023-05-07T14:29:44;3.87;;;1.90;;
21507;SDS011;10915;54.352;9.074;2023-05-07T14:32:10;1.93;;;1.60;;
21507;SDS011;10915;54.352;9.074;2023-05-07T14:34:36;2.50;;;2.07;;
21507;SDS011;10915;54.352;9.074;2023-05-07T14:37:01;2.13;;;1.73;;
21507;SDS011;10915;54.352;9.074;2023-05-07T14:39:28;2.37;;;1.63;;
21507;SDS011;10915;54.352;9.074;2023-05-07T14:41:54;4.50;;;2.00;;
21507;SDS011;10915;54.352;9.074;2023-05-07T14:44:21;2.40;;;1.53;;
21507;SDS011;10915;54.352;9.074;2023-05-07T14:46:46;2.47;;;1.80;;
21507;SDS011;10915;54.352;9.074;2023-05-07T14:49:13;2.53;;;1.87;;
21507;SDS011;10915;54.352;9.074;2023-05-07T14:51:42;3.33;;;2.00;;